sensor_id;sensor_type;location;lat;lon;timestamp;P1;durP1;ratioP1;P2;durP2;ratioP2
7585;SDS011;12459;42.646;23.292;2023-03-01T00:13:44;4.97;;;4.67;;
7585;SDS011;12459;42.646;23.292;2023-03-01T00:28:47;5.50;;;5.10;;
7585;SDS011;12459;42.646;23.292;2023-03-01T00:58:51;5.53;;;5.13;;
7585;SDS011;12459;42.646;23.292;2023-03-01T01:13:53;5.87;;;5.47;;
7585;SDS011;12459;42.646;23.292;2023-03-01T01:59:19;4.97;;;4.67;;
7585;SDS011;12459;42.646;23.292;2023-03-01T02:14:25;5.00;;;4.70;;
7585;SDS011;12459;42.646;23.292;2023-03-01T02:29:27;5.33;;;4.97;;
7585;SDS011;12459;42.646;23.292;2023-03-01T02:44:30;4.50;;;4.20;;
7585;SDS011;12459;42.646;23.292;2023-03-01T02:59:32;4.90;;;4.60;;
7585;SDS011;12459;42.646;23.292;2023-03-01T03:14:40;4.93;;;4.63;;
7585;SDS011;12459;42.646;23.292;2023-03-01T03:29:42;4.57;;;4.27;;
7585;SDS011;12459;42.646;23.292;2023-03-01T03:44:44;4.80;;;4.50;;
7585;SDS011;12459;42.646;23.292;2023-03-01T03:59:45;5.07;;;4.77;;
7585;SDS011;12459;42.646;23.292;2023-03-01T04:15:06;4.47;;;4.17;;
7585;SDS011;12459;42.646;23.292;2023-03-01T04:30:15;6.27;;;5.87;;
7585;SDS011;12459;42.646;23.292;2023-03-01T04:45:17;4.43;;;4.13;;
7585;SDS011;12459;42.646;23.292;2023-03-01T05:00:19;4.30;;;4.00;;
7585;SDS011;12459;42.646;23.292;2023-03-01T05:30:26;5.43;;;5.03;;
7585;SDS011;12459;42.646;23.292;2023-03-01T05:45:28;4.90;;;4.60;;
7585;SDS011;12459;42.646;23.292;2023-03-01T06:00:30;5.03;;;4.73;;
7585;SDS011;12459;42.646;23.292;2023-03-01T06:15:32;5.43;;;5.03;;
7585;SDS011;12459;42.646;23.292;2023-03-01T06:30:34;4.83;;;4.53;;
7585;SDS011;12459;42.646;23.292;2023-03-01T06:45:36;4.77;;;4.47;;
7585;SDS011;12459;42.646;23.292;2023-03-01T07:00:38;5.60;;;5.20;;
7585;SDS011;12459;42.646;23.292;2023-03-01T07:15:42;4.93;;;4.63;;
7585;SDS011;12459;42.646;23.292;2023-03-01T07:30:43;5.53;;;5.13;;
7585;SDS011;12459;42.646;23.292;2023-03-01T07:45:46;5.27;;;4.93;;
7585;SDS011;12459;42.646;23.292;2023-03-01T08:00:48;6.10;;;5.70;;
7585;SDS011;12459;42.646;23.292;2023-03-01T08:15:50;5.37;;;4.97;;
7585;SDS011;12459;42.646;23.292;2023-03-01T08:30:52;6.13;;;5.73;;
7585;SDS011;12459;42.646;23.292;2023-03-01T08:45:53;5.87;;;5.47;;
7585;SDS011;12459;42.646;23.292;2023-03-01T09:00:55;5.50;;;5.10;;
7585;SDS011;12459;42.646;23.292;2023-03-01T09:15:58;5.67;;;5.27;;
7585;SDS011;12459;42.646;23.292;2023-03-01T09:31:01;8.13;;;7.63;;
7585;SDS011;12459;42.646;23.292;2023-03-01T09:46:04;6.40;;;6.00;;
7585;SDS011;12459;42.646;23.292;2023-03-01T10:16:12;6.33;;;5.93;;
7585;SDS011;12459;42.646;23.292;2023-03-01T10:31:20;6.83;;;6.43;;
7585;SDS011;12459;42.646;23.292;2023-03-01T10:46:38;6.27;;;5.87;;
7585;SDS011;12459;42.646;23.292;2023-03-01T11:01:40;6.17;;;5.77;;
7585;SDS011;12459;42.646;23.292;2023-03-01T11:16:44;7.03;;;6.63;;
7585;SDS011;12459;42.646;23.292;2023-03-01T11:31:48;6.77;;;6.37;;
7585;SDS011;12459;42.646;23.292;2023-03-01T12:02:42;6.53;;;6.13;;
7585;SDS011;12459;42.646;23.292;2023-03-01T12:33:15;7.37;;;6.97;;
7585;SDS011;12459;42.646;23.292;2023-03-01T13:19:28;7.50;;;7.10;;
7585;SDS011;12459;42.646;23.292;2023-03-01T13:34:43;7.87;;;7.37;;
7585;SDS011;12459;42.646;23.292;2023-03-01T13:49:46;8.83;;;8.33;;
7585;SDS011;12459;42.646;23.292;2023-03-01T14:05:05;8.80;;;8.30;;
7585;SDS011;12459;42.646;23.292;2023-03-01T14:35:25;8.87;;;8.37;;
7585;SDS011;12459;42.646;23.292;2023-03-01T15:05:36;6.57;;;6.17;;
7585;SDS011;12459;42.646;23.292;2023-03-01T15:20:38;8.03;;;7.53;;
7585;SDS011;12459;42.646;23.292;2023-03-01T15:35:41;6.70;;;6.30;;
7585;SDS011;12459;42.646;23.292;2023-03-01T15:50:53;6.17;;;5.77;;
7585;SDS011;12459;42.646;23.292;2023-03-01T16:05:56;6.27;;;5.87;;
7585;SDS011;12459;42.646;23.292;2023-03-01T16:20:58;6.37;;;5.97;;
7585;SDS011;12459;42.646;23.292;2023-03-01T16:36:01;6.23;;;5.83;;
7585;SDS011;12459;42.646;23.292;2023-03-01T16:51:08;5.67;;;5.27;;
7585;SDS011;12459;42.646;23.292;2023-03-01T17:06:11;5.50;;;5.10;;
7585;SDS011;12459;42.646;23.292;2023-03-01T17:21:15;4.53;;;4.23;;
7585;SDS011;12459;42.646;23.292;2023-03-01T17:36:17;6.07;;;5.67;;
7585;SDS011;12459;42.646;23.292;2023-03-01T17:51:19;5.27;;;4.87;;
7585;SDS011;12459;42.646;23.292;2023-03-01T18:06:25;4.70;;;4.40;;
7585;SDS011;12459;42.646;23.292;2023-03-01T18:21:28;4.20;;;3.90;;
7585;SDS011;12459;42.646;23.292;2023-03-01T18:51:35;4.83;;;4.53;;
7585;SDS011;12459;42.646;23.292;2023-03-01T19:06:36;4.90;;;4.60;;
7585;SDS011;12459;42.646;23.292;2023-03-01T19:21:39;5.50;;;5.10;;
7585;SDS011;12459;42.646;23.292;2023-03-01T19:36:41;5.00;;;4.70;;
7585;SDS011;12459;42.646;23.292;2023-03-01T19:51:44;7.20;;;6.80;;
7585;SDS011;12459;42.646;23.292;2023-03-01T20:06:46;4.87;;;4.57;;
7585;SDS011;12459;42.646;23.292;2023-03-01T20:21:48;4.50;;;4.20;;
7585;SDS011;12459;42.646;23.292;2023-03-01T20:36:50;5.50;;;5.10;;
7585;SDS011;12459;42.646;23.292;2023-03-01T20:51:52;5.47;;;5.07;;
7585;SDS011;12459;42.646;23.292;2023-03-01T21:06:53;5.37;;;5.00;;
7585;SDS011;12459;42.646;23.292;2023-03-01T21:21:55;5.23;;;4.87;;
7585;SDS011;12459;42.646;23.292;2023-03-01T21:36:57;5.27;;;4.93;;
7585;SDS011;12459;42.646;23.292;2023-03-01T21:51:59;5.10;;;4.80;;
7585;SDS011;12459;42.646;23.292;2023-03-01T22:07:01;6.07;;;5.67;;
7585;SDS011;12459;42.646;23.292;2023-03-01T22:22:04;6.73;;;6.33;;
7585;SDS011;12459;42.646;23.292;2023-03-01T22:37:05;4.47;;;4.17;;
7585;SDS011;12459;42.646;23.292;2023-03-01T22:52:07;4.43;;;4.13;;
7585;SDS011;12459;42.646;23.292;2023-03-01T23:07:09;4.50;;;4.20;;
7585;SDS011;12459;42.646;23.292;2023-03-01T23:22:10;4.83;;;4.53;;
7585;SDS011;12459;42.646;23.292;2023-03-01T23:37:12;4.70;;;4.40;;
7585;SDS011;12459;42.646;23.292;2023-03-01T23:52:14;4.90;;;4.60;;
